KPAM/PAM METAR and TAF weather

Enter ICAO airport designator
Station Type Date Time Source
KPAM METAR 2021/03/03 02:56 UTC NOAA

KPAM 030256Z AUTO 09011KT 10SM -DZ SCT007 OVC017 14/13 A2991 RMK AO2 RAE44DZB44 CIG 007 RWY32 SLP132 P0004 60009 T01400129 58012


Station Type Date Time Source
KPAM Decoded METAR 2021/03/03 02:56 UTC NOAA

Tyndall Air Force Base, FL, United States (KPAM) 30-04N 085-35W 13M
Mar 02, 2021 - 09:56 PM EST / 2021.03.03 0256 UTC
Wind: from the E (090 degrees) at 13 MPH (11 KT):0
Visibility: 10 mile(s):0
Sky conditions: overcast
Weather: light drizzle
Precipitation last hour: 0.04 inches
Temperature: 57.2 F (14.0 C)
Dew Point: 55.2 F (12.9 C)
Relative Humidity: 93%
Pressure (altimeter): 29.91 in. Hg (1012 hPa)
Pressure tendency: 0.04 inches (1.2 hPa) lower than three hours ago
ob: KPAM 030256Z AUTO 09011KT 10SM -DZ SCT007 OVC017 14/13 A2991 RMK AO2 RAE44DZB44 CIG 007 RWY32 SLP132 P0004 60009 T01400129 58012
cycle: 3

Station Type Date Time Source
KPAM TAF 2021/03/02 22:08 UTC NOAA

TAF
AMD KPAM 022205Z 0222/0402 06012G18KT 9000 -SHRA BKN008 OVC010 QNH2994INS
BECMG 0223/0224 08012G18KT 4800 SHRA BKN005 OVC010 QNH2990INS
TEMPO 0301/0306 08012G26KT 3200 TSRA OVC005CB
BECMG 0305/0306 01012G18KT 9999 NSW BKN005 QNH2991INS
BECMG 0314/0315 02012G18KT 9999 SCT005 BKN015 QNH3005INS
BECMG 0321/0322 01012KT 9999 SCT015 BKN020 QNH3002INS TX15/0303Z TN10/0312Z LAST NO
AMDS AFT 0222 NEXT 0312

Example: see airport list